createdAt,value
2019-02-15T00:01:27.963Z,44.74
2019-02-15T00:03:58.326Z,44.70
2019-02-15T00:06:28.903Z,44.47
2019-02-15T00:09:04.659Z,43.95
2019-02-15T00:11:37.278Z,43.87
2019-02-15T00:14:08.028Z,43.96
2019-02-15T00:16:39.526Z,43.65
2019-02-15T00:19:17.367Z,43.65
2019-02-15T00:21:49.817Z,43.30
2019-02-15T00:24:20.122Z,43.27
2019-02-15T00:26:56.320Z,43.10
2019-02-15T00:29:29.045Z,42.32
2019-02-15T00:32:04.265Z,41.39
2019-02-15T00:34:36.524Z,40.94
2019-02-15T00:37:07.131Z,40.93
2019-02-15T00:39:38.546Z,39.54
2019-02-15T00:42:14.098Z,39.75
2019-02-15T00:44:44.950Z,39.74
2019-02-15T00:47:28.151Z,39.30
2019-02-15T00:50:20.675Z,39.71
2019-02-15T00:53:12.372Z,39.74
2019-02-15T00:56:12.207Z,39.95
2019-02-15T00:59:07.868Z,40.43
2019-02-15T01:01:50.951Z,40.77
2019-02-15T01:04:34.755Z,41.14
2019-02-15T01:07:23.821Z,41.41
2019-02-15T01:10:11.895Z,41.77
2019-02-15T01:12:47.975Z,42.18
2019-02-15T01:15:18.808Z,42.37
2019-02-15T01:17:51.995Z,42.92
2019-02-15T01:20:37.080Z,42.92
2019-02-15T01:23:10.239Z,42.69
2019-02-15T01:26:02.637Z,42.88
2019-02-15T01:28:38.606Z,42.79
2019-02-15T01:31:31.797Z,42.79
2019-02-15T01:34:32.132Z,42.88
2019-02-15T01:37:10.795Z,42.98
2019-02-15T01:40:00.835Z,43.12
2019-02-15T01:42:51.283Z,43.23
2019-02-15T01:45:36.233Z,43.38
2019-02-15T01:48:06.874Z,43.54
2019-02-15T01:50:37.266Z,43.73
2019-02-15T01:53:09.609Z,44.00
2019-02-15T01:55:41.458Z,44.21
2019-02-15T01:58:12.159Z,44.47
2019-02-15T02:00:42.739Z,44.61
2019-02-15T02:03:14.109Z,44.68
2019-02-15T02:05:44.545Z,45.13
2019-02-15T02:08:24.058Z,45.32
2019-02-15T02:10:52.710Z,45.60
2019-02-15T02:13:23.051Z,45.71
2019-02-15T02:15:54.449Z,46.10
2019-02-15T02:18:25.206Z,46.19
2019-02-15T02:20:57.769Z,46.23
2019-02-15T02:23:27.681Z,46.50
2019-02-15T02:25:58.949Z,46.77
2019-02-15T02:28:29.737Z,47.09
2019-02-15T02:31:01.341Z,47.40
2019-02-15T02:33:31.951Z,47.59
2019-02-15T02:36:02.478Z,47.79
2019-02-15T02:38:35.318Z,48.10
2019-02-15T02:41:08.047Z,48.12
2019-02-15T02:43:38.631Z,48.31
2019-02-15T02:46:10.569Z,48.65
2019-02-15T02:48:42.289Z,48.80
2019-02-15T02:51:12.683Z,48.82
2019-02-15T02:53:45.465Z,48.91
2019-02-15T02:56:17.509Z,49.03
2019-02-15T02:58:48.189Z,49.19
2019-02-15T03:01:18.509Z,49.28
2019-02-15T03:03:52.725Z,49.60
2019-02-15T03:06:23.117Z,49.93
2019-02-15T03:08:55.927Z,50.27
2019-02-15T03:11:26.405Z,50.52
2019-02-15T03:13:57.678Z,50.76
2019-02-15T03:16:28.069Z,51.01
2019-02-15T03:18:58.920Z,51.25
2019-02-15T03:21:29.190Z,51.29
2019-02-15T03:24:01.216Z,51.52
2019-02-15T03:26:31.815Z,51.75
2019-02-15T03:29:03.785Z,51.93
2019-02-15T03:31:34.508Z,52.33
2019-02-15T03:34:06.425Z,52.33
2019-02-15T03:36:48.538Z,52.34
2019-02-15T03:39:50.622Z,52.29
2019-02-15T03:42:21.792Z,52.31
2019-02-15T03:44:53.316Z,52.34
2019-02-15T03:47:26.479Z,52.47
2019-02-15T03:49:58.419Z,52.44
2019-02-15T03:52:30.575Z,52.54
2019-02-15T03:55:00.964Z,52.75
2019-02-15T03:57:36.227Z,53.03
2019-02-15T04:00:10.318Z,53.03
2019-02-15T04:02:41.146Z,53.06
2019-02-15T04:05:11.830Z,53.11
2019-02-15T04:07:46.096Z,53.16
2019-02-15T04:10:18.477Z,53.28
2019-02-15T04:12:50.226Z,53.34
2019-02-15T04:15:20.907Z,53.41
2019-02-15T04:17:52.753Z,53.31
2019-02-15T04:20:24.394Z,53.32
2019-02-15T04:22:55.148Z,53.34
2019-02-15T04:25:25.508Z,53.38
2019-02-15T04:27:55.863Z,53.33
2019-02-15T04:30:26.283Z,53.27
2019-02-15T04:32:56.543Z,53.18
2019-02-15T04:35:27.223Z,53.39
2019-02-15T04:37:59.093Z,53.49
2019-02-15T04:40:29.730Z,53.56
2019-02-15T04:43:00.051Z,53.66
2019-02-15T04:45:30.646Z,53.70
2019-02-15T04:48:00.986Z,53.75
2019-02-15T04:50:31.956Z,53.79
2019-02-15T04:53:03.221Z,53.92
2019-02-15T04:55:35.875Z,53.95
2019-02-15T04:58:06.497Z,54.03
2019-02-15T05:00:49.551Z,54.09
2019-02-15T05:03:22.930Z,54.20
2019-02-15T05:05:57.463Z,54.36
2019-02-15T05:08:31.848Z,54.32
2019-02-15T05:11:02.891Z,54.37
2019-02-15T05:13:40.638Z,54.54
2019-02-15T05:16:11.675Z,54.67
2019-02-15T05:18:47.874Z,54.74
2019-02-15T05:21:18.533Z,54.64
2019-02-15T05:23:48.848Z,54.74
2019-02-15T05:26:21.587Z,54.79
2019-02-15T05:28:56.038Z,54.85
2019-02-15T05:31:27.970Z,54.93
2019-02-15T05:34:00.147Z,54.98
2019-02-15T05:36:30.925Z,55.00
2019-02-15T05:39:04.589Z,55.14
2019-02-15T05:41:37.904Z,55.31
2019-02-15T05:44:08.949Z,55.39
2019-02-15T05:46:39.252Z,55.46
2019-02-15T05:49:11.154Z,55.59
2019-02-15T05:51:43.086Z,55.54
2019-02-15T05:54:13.413Z,55.79
2019-02-15T05:56:44.078Z,55.94
2019-02-15T05:59:14.413Z,56.02
2019-02-15T06:01:46.081Z,56.24
2019-02-15T06:04:17.676Z,56.54
2019-02-15T06:06:48.175Z,56.87
2019-02-15T06:09:18.563Z,57.27
2019-02-15T06:11:49.654Z,57.39
2019-02-15T06:14:21.479Z,57.57
2019-02-15T06:16:52.047Z,57.88
2019-02-15T06:19:25.413Z,58.25
2019-02-15T06:21:56.089Z,58.54
2019-02-15T06:24:26.669Z,58.72
2019-02-15T06:26:59.106Z,58.84
2019-02-15T06:29:29.413Z,58.88
2019-02-15T06:32:00.103Z,58.73
2019-02-15T06:34:30.408Z,58.83
2019-02-15T06:37:02.256Z,59.14
2019-02-15T06:39:34.052Z,59.43
2019-02-15T06:42:05.017Z,59.51
2019-02-15T06:44:35.618Z,59.73
2019-02-15T06:47:08.952Z,60.06
2019-02-15T06:49:44.968Z,60.17
2019-02-15T06:52:14.285Z,60.19
2019-02-15T06:54:44.633Z,60.26
2019-02-15T06:57:16.329Z,60.18
2019-02-15T07:00:10.844Z,60.20
2019-02-15T07:02:52.666Z,60.09
2019-02-15T07:05:28.279Z,60.29
2019-02-15T07:07:58.929Z,60.31
2019-02-15T07:10:31.723Z,60.41
2019-02-15T07:13:01.285Z,60.30
2019-02-15T07:15:34.158Z,60.31
2019-02-15T07:18:04.478Z,60.52
2019-02-15T07:20:38.046Z,60.56
2019-02-15T07:23:15.766Z,60.51
2019-02-15T07:25:46.744Z,60.39
2019-02-15T07:28:17.136Z,60.28
2019-02-15T07:30:48.040Z,60.18
2019-02-15T07:33:23.095Z,59.95
2019-02-15T07:35:58.780Z,59.83
2019-02-15T07:38:29.140Z,59.62
2019-02-15T07:41:00.205Z,59.32
2019-02-15T07:43:34.635Z,59.06
2019-02-15T07:46:06.942Z,58.86
2019-02-15T07:48:38.561Z,58.55
2019-02-15T07:51:10.105Z,58.20
2019-02-15T07:53:40.482Z,57.79
2019-02-15T07:56:12.115Z,57.06
2019-02-15T07:58:44.340Z,56.67
2019-02-15T08:01:14.998Z,56.00
2019-02-15T08:03:45.656Z,55.70
2019-02-15T08:06:18.971Z,55.25
2019-02-15T08:08:52.620Z,54.99
2019-02-15T08:11:25.701Z,54.55
2019-02-15T08:13:55.960Z,54.35
2019-02-15T08:16:26.623Z,54.15
2019-02-15T08:19:00.543Z,53.71
2019-02-15T08:21:33.082Z,53.33
2019-02-15T08:24:03.326Z,52.92
2019-02-15T08:26:43.558Z,52.51
2019-02-15T08:29:13.839Z,51.78
2019-02-15T08:31:48.221Z,51.18
2019-02-15T08:34:18.945Z,50.44
2019-02-15T08:36:51.397Z,44.61
2019-02-15T08:39:21.717Z,34.33
2019-02-15T08:42:01.216Z,29.30
2019-02-15T08:44:24.729Z,27.47
2019-02-15T08:46:55.464Z,26.78
2019-02-15T08:49:26.137Z,26.46
2019-02-15T08:52:06.039Z,24.32
2019-02-15T08:54:37.396Z,22.21
2019-02-15T08:57:09.715Z,21.35
2019-02-15T08:59:40.257Z,22.28
2019-02-15T09:02:22.646Z,24.22
2019-02-15T09:04:57.434Z,27.10
2019-02-15T09:07:28.150Z,28.68
2019-02-15T09:09:58.662Z,29.36
2019-02-15T09:12:29.648Z,28.87
2019-02-15T09:15:03.950Z,28.02
2019-02-15T09:17:38.951Z,27.24
2019-02-15T09:20:10.659Z,24.58
2019-02-15T09:22:41.330Z,24.31
2019-02-15T09:25:18.146Z,25.58
2019-02-15T09:28:10.630Z,25.76
2019-02-15T09:30:45.017Z,24.66
2019-02-15T09:33:18.527Z,26.11
2019-02-15T09:35:49.150Z,27.26
2019-02-15T09:38:19.710Z,27.48
2019-02-15T09:40:50.309Z,26.27
2019-02-15T09:43:21.253Z,24.32
2019-02-15T09:45:52.027Z,21.37
2019-02-15T09:48:22.921Z,19.45
2019-02-15T09:50:53.855Z,17.81
2019-02-15T09:53:26.533Z,16.93
2019-02-15T09:55:56.817Z,15.75
2019-02-15T09:58:27.389Z,15.29
2019-02-15T10:00:57.934Z,15.56
2019-02-15T10:03:32.921Z,15.65
2019-02-15T10:06:03.252Z,15.22
2019-02-15T10:08:33.830Z,14.63
2019-02-15T10:11:05.314Z,14.63
2019-02-15T10:13:37.280Z,15.04
2019-02-15T10:16:11.577Z,14.54
2019-02-15T10:18:42.105Z,14.40
2019-02-15T10:21:12.602Z,14.57
2019-02-15T10:23:44.895Z,14.53
2019-02-15T10:26:18.127Z,15.43
2019-02-15T10:28:48.793Z,14.85
2019-02-15T10:31:19.500Z,14.91
2019-02-15T10:33:52.600Z,16.46
2019-02-15T10:36:27.532Z,16.46
2019-02-15T10:39:02.211Z,16.70
2019-02-15T10:41:33.955Z,18.98
2019-02-15T10:44:04.536Z,23.17
2019-02-15T10:46:37.829Z,26.67
2019-02-15T10:49:07.521Z,28.69
2019-02-15T10:51:38.186Z,30.06
2019-02-15T10:54:08.772Z,31.21
2019-02-15T10:56:41.055Z,31.70
2019-02-15T10:59:19.392Z,32.29
2019-02-15T11:01:46.724Z,32.95
2019-02-15T11:04:17.267Z,32.92
2019-02-15T11:06:48.141Z,33.15
2019-02-15T11:09:20.159Z,33.23
2019-02-15T11:11:50.877Z,33.47
2019-02-15T11:14:21.276Z,33.35
2019-02-15T11:16:52.551Z,33.52
2019-02-15T11:19:23.293Z,33.59
2019-02-15T11:21:53.554Z,33.92
2019-02-15T11:24:24.293Z,33.93
2019-02-15T11:26:54.631Z,33.71
2019-02-15T11:29:28.678Z,33.93
2019-02-15T11:32:11.166Z,33.83
2019-02-15T11:34:36.879Z,33.86
2019-02-15T11:37:07.375Z,33.89
2019-02-15T11:39:38.398Z,33.72
2019-02-15T11:42:08.759Z,33.87
2019-02-15T11:44:39.343Z,33.97
2019-02-15T11:47:09.834Z,33.99
2019-02-15T11:49:40.364Z,33.88
2019-02-15T11:52:10.962Z,34.14
2019-02-15T11:54:44.853Z,34.14
2019-02-15T11:57:15.136Z,33.75
2019-02-15T11:59:56.517Z,33.75
2019-02-15T12:02:26.949Z,33.77
2019-02-15T12:04:59.008Z,33.47
2019-02-15T12:07:29.369Z,33.49
2019-02-15T12:09:59.988Z,32.88
2019-02-15T12:12:43.113Z,32.88
2019-02-15T12:15:09.289Z,33.03
2019-02-15T12:17:41.531Z,33.12
2019-02-15T12:20:12.886Z,33.26
2019-02-15T12:22:45.599Z,32.96
2019-02-15T12:25:22.505Z,32.93
2019-02-15T12:27:54.161Z,33.07
2019-02-15T12:30:28.446Z,32.90
2019-02-15T12:32:59.166Z,32.74
2019-02-15T12:35:29.836Z,32.16
2019-02-15T12:38:03.965Z,32.44
2019-02-15T12:40:34.751Z,32.29
2019-02-15T12:43:05.193Z,31.92
2019-02-15T12:45:35.792Z,31.87
2019-02-15T12:48:08.479Z,31.81
2019-02-15T12:50:52.685Z,31.79
2019-02-15T12:53:24.979Z,31.86
2019-02-15T12:55:55.583Z,31.87
2019-02-15T12:58:27.547Z,31.61
2019-02-15T13:01:02.049Z,31.48
2019-02-15T13:03:37.921Z,31.77
2019-02-15T13:06:08.440Z,31.88
2019-02-15T13:08:40.767Z,31.58
2019-02-15T13:11:11.808Z,31.63
2019-02-15T13:13:43.530Z,31.96
2019-02-15T13:16:16.197Z,31.83
2019-02-15T13:18:47.413Z,31.39
2019-02-15T13:21:20.050Z,31.67
2019-02-15T13:23:52.922Z,31.73
2019-02-15T13:26:23.505Z,31.91
2019-02-15T13:28:56.469Z,31.59
2019-02-15T13:31:27.250Z,31.60
2019-02-15T13:33:59.355Z,31.24
2019-02-15T13:36:29.966Z,31.09
2019-02-15T13:39:04.465Z,31.22
2019-02-15T13:41:35.830Z,31.33
2019-02-15T13:44:06.146Z,31.59
2019-02-15T13:46:36.556Z,31.59
2019-02-15T13:49:07.285Z,31.33
2019-02-15T13:51:39.254Z,31.24
2019-02-15T13:54:12.756Z,31.42
2019-02-15T13:56:43.555Z,31.66
2019-02-15T13:59:14.225Z,31.36
2019-02-15T14:01:44.853Z,31.59
2019-02-15T14:04:16.439Z,31.74
2019-02-15T14:06:54.576Z,31.73
2019-02-15T14:09:26.922Z,32.02
2019-02-15T14:11:59.008Z,31.82
2019-02-15T14:14:29.423Z,31.62
2019-02-15T14:17:04.327Z,31.83
2019-02-15T14:19:35.677Z,32.00
2019-02-15T14:22:06.335Z,31.89
2019-02-15T14:24:36.667Z,31.84
2019-02-15T14:27:10.318Z,31.69
2019-02-15T14:29:40.979Z,31.50
2019-02-15T14:32:11.604Z,31.13
2019-02-15T14:34:42.023Z,30.96
2019-02-15T14:37:13.937Z,31.14
2019-02-15T14:39:45.910Z,31.09
2019-02-15T14:42:16.544Z,31.11
2019-02-15T14:44:47.019Z,31.08
2019-02-15T14:47:22.248Z,31.27
2019-02-15T14:49:52.906Z,31.37
2019-02-15T14:52:23.783Z,31.71
2019-02-15T14:54:54.124Z,31.67
2019-02-15T14:57:24.584Z,31.40
2019-02-15T14:59:54.988Z,31.12
2019-02-15T15:02:25.571Z,31.28
2019-02-15T15:04:57.111Z,31.62
2019-02-15T15:07:29.981Z,31.65
2019-02-15T15:10:00.352Z,31.74
2019-02-15T15:12:31.211Z,31.56
2019-02-15T15:15:05.729Z,31.56
2019-02-15T15:17:36.212Z,31.67
2019-02-15T15:20:07.994Z,31.81
2019-02-15T15:22:38.802Z,32.00
2019-02-15T15:25:10.963Z,31.94
2019-02-15T15:27:41.745Z,31.95
2019-02-15T15:30:14.493Z,31.95
2019-02-15T15:32:46.539Z,31.91
2019-02-15T15:35:17.470Z,32.01
2019-02-15T15:37:52.162Z,32.46
2019-02-15T15:40:22.731Z,32.65
2019-02-15T15:42:59.257Z,33.05
2019-02-15T15:45:32.525Z,33.42
2019-02-15T15:48:03.238Z,33.44
2019-02-15T15:50:34.961Z,33.25
2019-02-15T15:53:07.730Z,33.29
2019-02-15T15:55:37.541Z,33.31
2019-02-15T15:58:10.915Z,33.12
2019-02-15T16:00:41.361Z,33.53
2019-02-15T16:03:12.048Z,33.57
2019-02-15T16:05:42.727Z,33.98
2019-02-15T16:08:15.457Z,34.21
2019-02-15T16:10:47.308Z,33.71
2019-02-15T16:13:18.780Z,33.86
2019-02-15T16:15:51.232Z,33.93
2019-02-15T16:18:33.149Z,33.35
2019-02-15T16:21:00.709Z,33.58
2019-02-15T16:23:31.134Z,33.57
2019-02-15T16:26:02.020Z,34.02
2019-02-15T16:28:34.606Z,34.24
2019-02-15T16:31:12.214Z,34.55
2019-02-15T16:33:40.344Z,35.12
2019-02-15T16:36:11.003Z,35.12
2019-02-15T16:38:43.458Z,35.47
2019-02-15T16:41:13.982Z,35.68
2019-02-15T16:43:44.777Z,35.73
2019-02-15T16:46:15.158Z,35.89
2019-02-15T16:48:51.556Z,36.27
2019-02-15T16:51:21.917Z,36.78
2019-02-15T16:53:54.412Z,37.27
2019-02-15T16:56:24.944Z,37.34
2019-02-15T16:58:55.615Z,37.12
2019-02-15T17:01:26.448Z,37.37
2019-02-15T17:03:56.799Z,37.78
2019-02-15T17:06:27.143Z,37.73
2019-02-15T17:08:57.659Z,37.85
2019-02-15T17:11:28.287Z,38.08
2019-02-15T17:13:58.972Z,38.16
2019-02-15T17:16:30.001Z,38.31
2019-02-15T17:19:00.379Z,38.44
2019-02-15T17:21:31.042Z,38.46
2019-02-15T17:24:04.024Z,38.85
2019-02-15T17:26:34.648Z,38.79
2019-02-15T17:29:38.636Z,38.80
2019-02-15T17:32:39.968Z,38.58
2019-02-15T17:35:16.361Z,38.70
2019-02-15T17:37:48.331Z,38.54
2019-02-15T17:40:20.952Z,38.56
2019-02-15T17:42:51.784Z,38.14
2019-02-15T17:45:22.105Z,38.52
2019-02-15T17:47:52.954Z,38.46
2019-02-15T17:50:23.456Z,38.74
2019-02-15T17:52:56.318Z,38.72
2019-02-15T17:55:27.109Z,38.89
2019-02-15T17:57:57.981Z,39.00
2019-02-15T18:00:30.839Z,39.18
2019-02-15T18:03:01.723Z,38.17
2019-02-15T18:05:34.064Z,38.63
2019-02-15T18:08:06.229Z,37.97
2019-02-15T18:10:37.142Z,37.92
2019-02-15T18:13:09.772Z,38.00
2019-02-15T18:15:44.536Z,38.18
2019-02-15T18:18:15.318Z,38.08
2019-02-15T18:20:46.878Z,37.89
2019-02-15T18:23:19.245Z,38.16
2019-02-15T18:25:50.042Z,38.24
2019-02-15T18:28:20.447Z,38.10
2019-02-15T18:30:50.868Z,38.07
2019-02-15T18:33:21.277Z,38.03
2019-02-15T18:35:52.152Z,38.07
2019-02-15T18:38:22.826Z,38.12
2019-02-15T18:40:53.438Z,38.30
2019-02-15T18:43:25.417Z,38.07
2019-02-15T18:45:57.505Z,38.38
2019-02-15T18:48:28.194Z,38.49
2019-02-15T18:50:58.519Z,38.91
2019-02-15T18:53:31.939Z,38.91
2019-02-15T18:56:02.298Z,38.50
2019-02-15T18:58:37.428Z,38.37
2019-02-15T19:01:06.940Z,38.34
2019-02-15T19:03:38.894Z,38.51
2019-02-15T19:06:09.290Z,38.50
2019-02-15T19:08:39.855Z,38.83
2019-02-15T19:11:14.223Z,38.93
2019-02-15T19:13:52.308Z,39.07
2019-02-15T19:16:21.805Z,39.25
2019-02-15T19:18:52.254Z,39.13
2019-02-15T19:21:26.967Z,39.42
2019-02-15T19:23:57.607Z,39.51
2019-02-15T19:26:28.058Z,39.35
2019-02-15T19:29:01.191Z,39.17
2019-02-15T19:31:31.738Z,39.12
2019-02-15T19:34:11.422Z,39.17
2019-02-15T19:36:43.058Z,39.28
2019-02-15T19:39:14.092Z,39.38
2019-02-15T19:41:44.561Z,39.45
2019-02-15T19:44:16.585Z,39.45
2019-02-15T19:46:47.116Z,38.88
2019-02-15T19:49:22.160Z,38.99
2019-02-15T19:51:52.812Z,39.29
2019-02-15T19:54:23.113Z,39.15
2019-02-15T19:56:53.964Z,38.99
2019-02-15T19:59:25.537Z,38.80
2019-02-15T20:01:57.275Z,39.09
2019-02-15T20:04:27.689Z,39.16
2019-02-15T20:07:11.313Z,39.05
2019-02-15T20:09:43.305Z,38.73
2019-02-15T20:12:13.686Z,38.50
2019-02-15T20:14:46.713Z,38.50
2019-02-15T20:17:20.778Z,38.22
2019-02-15T20:19:51.411Z,38.27
2019-02-15T20:22:21.792Z,38.40
2019-02-15T20:24:53.708Z,38.31
2019-02-15T20:27:25.816Z,38.50
2019-02-15T20:29:56.269Z,38.63
2019-02-15T20:32:30.418Z,38.69
2019-02-15T20:35:03.574Z,38.90
2019-02-15T20:37:34.113Z,38.96
2019-02-15T20:40:08.490Z,39.01
2019-02-15T20:42:39.979Z,39.46
2019-02-15T20:45:13.201Z,39.84
2019-02-15T20:47:43.846Z,39.75
2019-02-15T20:50:15.545Z,40.15
2019-02-15T20:52:47.087Z,40.11
2019-02-15T20:55:19.365Z,40.18
2019-02-15T20:57:49.785Z,40.23
2019-02-15T21:00:22.652Z,40.27
2019-02-15T21:02:53.288Z,40.19
2019-02-15T21:05:24.911Z,40.14
2019-02-15T21:07:55.759Z,40.14
2019-02-15T21:10:27.320Z,40.24
2019-02-15T21:12:59.034Z,40.52
2019-02-15T21:15:31.270Z,40.35
2019-02-15T21:18:01.650Z,40.39
2019-02-15T21:20:35.969Z,40.50
2019-02-15T21:23:06.386Z,40.76
2019-02-15T21:25:38.495Z,41.14
2019-02-15T21:28:10.912Z,41.31
2019-02-15T21:30:42.116Z,41.66
2019-02-15T21:33:14.103Z,41.66
2019-02-15T21:35:46.108Z,41.27
2019-02-15T21:38:20.278Z,41.39
2019-02-15T21:40:52.273Z,41.48
2019-02-15T21:43:22.901Z,41.70
2019-02-15T21:45:53.945Z,41.70
2019-02-15T21:48:25.432Z,41.80
2019-02-15T21:50:57.220Z,41.94
2019-02-15T21:53:28.544Z,42.15
2019-02-15T21:56:01.628Z,42.24
2019-02-15T21:58:32.091Z,42.06
2019-02-15T22:01:07.285Z,42.40
2019-02-15T22:03:37.645Z,42.56
2019-02-15T22:06:08.075Z,42.69
2019-02-15T22:08:38.370Z,42.69
2019-02-15T22:11:16.633Z,43.21
2019-02-15T22:13:44.779Z,43.31
2019-02-15T22:16:37.040Z,43.42
2019-02-15T22:19:19.529Z,43.60
2019-02-15T22:21:51.335Z,44.09
2019-02-15T22:25:26.186Z,44.45
2019-02-15T22:28:27.852Z,44.29
2019-02-15T22:30:58.841Z,44.50
2019-02-15T22:33:30.182Z,44.98
2019-02-15T22:36:00.817Z,45.02
2019-02-15T22:38:31.357Z,45.06
2019-02-15T22:41:17.461Z,44.93
2019-02-15T22:43:48.134Z,44.68
2019-02-15T22:46:18.490Z,44.88
2019-02-15T22:48:52.336Z,45.17
2019-02-15T22:51:23.991Z,45.42
2019-02-15T22:53:56.462Z,45.39
2019-02-15T22:56:26.996Z,45.53
2019-02-15T22:58:59.962Z,45.42
2019-02-15T23:01:30.506Z,45.98
2019-02-15T23:04:00.857Z,46.02
2019-02-15T23:06:31.223Z,46.18
2019-02-15T23:09:04.323Z,45.87
2019-02-15T23:11:36.484Z,45.87
2019-02-15T23:14:07.322Z,46.16
2019-02-15T23:16:37.817Z,45.67
2019-02-15T23:19:09.483Z,45.68
2019-02-15T23:21:45.998Z,45.73
2019-02-15T23:24:17.480Z,46.20
2019-02-15T23:26:50.006Z,46.53
2019-02-15T23:29:24.908Z,46.37
2019-02-15T23:31:55.196Z,46.19
2019-02-15T23:34:26.935Z,46.39
2019-02-15T23:36:57.300Z,46.59
2019-02-15T23:39:29.993Z,47.00
2019-02-15T23:42:00.652Z,47.31
2019-02-15T23:44:35.661Z,47.46
2019-02-15T23:47:05.989Z,47.58
2019-02-15T23:49:36.815Z,47.51
2019-02-15T23:52:09.899Z,47.68
2019-02-15T23:54:39.420Z,47.80
2019-02-15T23:57:10.095Z,47.99
2019-02-15T23:59:41.987Z,47.84
